createdAt,value
2018-07-02T00:01:04.150Z,0.0
2018-07-02T00:11:15.712Z,0.0
2018-07-02T00:21:27.584Z,0.0
2018-07-02T00:31:52.723Z,0.0
2018-07-02T00:42:38.388Z,0.0
2018-07-02T00:52:50.181Z,0.0
2018-07-02T01:03:02.771Z,0.0
2018-07-02T01:13:14.901Z,0.0
2018-07-02T01:24:06.004Z,0.0
2018-07-02T01:34:18.344Z,0.0
2018-07-02T01:44:29.696Z,0.0
2018-07-02T01:55:15.017Z,0.0
2018-07-02T02:05:26.588Z,0.0
2018-07-02T02:15:40.688Z,0.0
2018-07-02T02:25:52.262Z,0.0
2018-07-02T02:36:04.943Z,0.0
2018-07-02T02:46:16.588Z,0.0
2018-07-02T02:56:31.056Z,0.0
2018-07-02T03:19:01.664Z,10.0
2018-07-02T03:30:29.411Z,20.0
2018-07-02T03:40:53.317Z,30.0
2018-07-02T03:51:18.186Z,45.0
2018-07-02T04:02:06.375Z,55.0
2018-07-02T04:13:33.426Z,70.0
2018-07-02T04:23:47.628Z,80.0
2018-07-02T04:34:37.749Z,90.0
2018-07-02T04:45:28.398Z,100.0
2018-07-02T04:55:41.338Z,105.0
2018-07-02T05:06:29.456Z,115.0
2018-07-02T05:16:44.125Z,125.0
2018-07-02T05:27:10.262Z,130.0
2018-07-02T05:37:28.451Z,140.0
2018-07-02T05:47:43.214Z,145.0
2018-07-02T05:58:01.286Z,155.0
2018-07-02T06:08:20.418Z,165.0
2018-07-02T06:19:30.929Z,175.0
2018-07-02T06:30:27.960Z,185.0
2018-07-02T06:40:41.564Z,200.0
2018-07-02T06:51:18.760Z,325.0
2018-07-02T07:01:33.545Z,425.0
2018-07-02T07:11:52.200Z,795.0
2018-07-02T07:22:30.755Z,1235.0
2018-07-02T07:32:43.338Z,430.0
2018-07-02T07:42:57.636Z,385.0
2018-07-02T07:53:43.413Z,370.0
2018-07-02T08:08:57.129Z,360.0
2018-07-02T08:19:13.884Z,365.0
2018-07-02T08:29:25.718Z,360.0
2018-07-02T08:40:38.537Z,370.0
2018-07-02T08:50:58.986Z,385.0
2018-07-02T09:01:14.252Z,405.0
2018-07-02T09:11:27.700Z,430.0
2018-07-02T09:21:47.105Z,480.0
2018-07-02T09:32:40.296Z,535.0
2018-07-02T09:43:27.687Z,630.0
2018-07-02T09:54:13.945Z,760.0
2018-07-02T10:04:25.537Z,965.0
2018-07-02T10:14:40.561Z,1350.0
2018-07-02T10:24:54.330Z,1725.0
2018-07-02T10:35:40.310Z,2420.0
2018-07-02T10:46:22.599Z,2005.0
2018-07-02T10:56:36.554Z,370.0
2018-07-02T11:06:48.675Z,360.0
2018-07-02T11:17:03.440Z,380.0
2018-07-02T11:27:49.138Z,365.0
2018-07-02T11:38:03.209Z,365.0
2018-07-02T11:48:49.927Z,370.0
2018-07-02T11:59:04.024Z,395.0
2018-07-02T12:09:16.102Z,1810.0
2018-07-02T12:19:31.693Z,2070.0
2018-07-02T12:29:45.356Z,1730.0
2018-07-02T12:40:35.062Z,1610.0
2018-07-02T12:50:51.376Z,1845.0
2018-07-02T13:01:37.610Z,1750.0
2018-07-02T13:11:51.813Z,1620.0
2018-07-02T13:22:37.519Z,1420.0
2018-07-02T13:32:51.863Z,1135.0
2018-07-02T13:43:06.364Z,960.0
2018-07-02T13:53:23.403Z,695.0
2018-07-02T14:03:39.197Z,605.0
2018-07-02T14:45:57.455Z,645.0
2018-07-02T14:56:13.014Z,495.0
2018-07-02T15:07:19.753Z,280.0
2018-07-02T15:59:53.341Z,230.0
2018-07-02T16:10:08.136Z,225.0
2018-07-02T16:20:23.170Z,220.0
2018-07-02T16:30:37.632Z,210.0
2018-07-02T16:41:46.703Z,205.0
2018-07-02T16:52:01.431Z,195.0
2018-07-02T17:02:15.519Z,190.0
2018-07-02T17:13:00.953Z,190.0
2018-07-02T17:23:15.129Z,180.0
2018-07-02T17:33:30.927Z,165.0
2018-07-02T17:44:49.048Z,150.0
2018-07-02T17:55:03.603Z,140.0
2018-07-02T18:05:17.783Z,125.0
2018-07-02T18:15:32.951Z,110.0
2018-07-02T18:25:48.549Z,100.0
2018-07-02T18:46:37.672Z,80.0
2018-07-02T20:35:51.450Z,0.0
2018-07-02T20:49:00.080Z,0.0
2018-07-02T20:59:14.670Z,0.0
2018-07-02T21:09:26.780Z,0.0
2018-07-02T21:19:42.637Z,0.0
2018-07-02T21:29:57.606Z,0.0
2018-07-02T21:40:13.618Z,0.0
2018-07-02T21:50:28.080Z,0.0
2018-07-02T22:00:43.403Z,0.0
2018-07-02T22:10:57.990Z,0.0
2018-07-02T22:21:09.535Z,0.0
2018-07-02T22:31:23.775Z,0.0
2018-07-02T22:42:12.763Z,0.0
2018-07-02T23:02:51.758Z,0.0
2018-07-02T23:13:06.265Z,0.0
2018-07-02T23:23:51.698Z,0.0
2018-07-02T23:34:37.769Z,0.0
2018-07-02T23:44:52.778Z,0.0
2018-07-02T23:55:04.549Z,0.0
